createdAt,value
2023-02-11T00:02:16.087Z,9.24
2023-02-11T00:04:43.221Z,9.42
2023-02-11T00:07:10.284Z,9.49
2023-02-11T00:09:37.947Z,9.40
2023-02-11T00:12:05.685Z,9.47
2023-02-11T00:14:32.867Z,9.55
2023-02-11T00:17:00.022Z,9.48
2023-02-11T00:19:28.800Z,9.35
2023-02-11T00:21:56.251Z,9.41
2023-02-11T00:24:24.841Z,9.47
2023-02-11T00:26:51.921Z,9.48
2023-02-11T00:29:18.949Z,9.55
2023-02-11T00:31:46.353Z,9.62
2023-02-11T00:34:13.981Z,9.61
2023-02-11T00:36:42.659Z,9.66
2023-02-11T00:39:09.844Z,9.70
2023-02-11T00:41:36.971Z,9.44
2023-02-11T00:44:04.386Z,9.47
2023-02-11T00:46:33.069Z,9.39
2023-02-11T00:49:00.155Z,9.52
2023-02-11T00:51:28.821Z,9.60
2023-02-11T00:53:57.259Z,9.46
2023-02-11T00:56:24.356Z,9.39
2023-02-11T00:58:51.630Z,9.56
2023-02-11T01:01:18.825Z,9.48
2023-02-11T01:03:46.300Z,9.62
2023-02-11T01:06:14.018Z,9.62
2023-02-11T01:08:41.214Z,9.44
2023-02-11T01:11:14.754Z,9.48
2023-02-11T01:13:41.982Z,9.67
2023-02-11T01:16:10.841Z,9.67
2023-02-11T01:18:38.656Z,9.62
2023-02-11T01:21:06.156Z,9.49
2023-02-11T01:23:33.517Z,9.65
2023-02-11T01:26:00.645Z,9.52
2023-02-11T01:28:30.629Z,9.65
2023-02-11T01:30:58.355Z,9.80
2023-02-11T01:33:25.514Z,9.61
2023-02-11T01:35:54.161Z,9.71
2023-02-11T01:38:23.366Z,9.80
2023-02-11T01:40:51.772Z,9.93
2023-02-11T01:43:20.506Z,9.94
2023-02-11T01:46:26.609Z,10.05
2023-02-11T01:48:57.883Z,9.98
2023-02-11T01:51:29.839Z,10.09
2023-02-11T01:54:16.188Z,10.13
2023-02-11T01:57:05.423Z,9.93
2023-02-11T01:59:36.136Z,10.14
2023-02-11T02:02:08.575Z,10.14
2023-02-11T02:04:44.560Z,10.21
2023-02-11T02:07:17.448Z,10.27
2023-02-11T02:09:52.637Z,10.29
2023-02-11T02:12:19.640Z,10.27
2023-02-11T02:14:46.693Z,10.24
2023-02-11T02:17:25.766Z,10.22
2023-02-11T02:20:24.675Z,10.27
2023-02-11T02:23:35.193Z,10.13
2023-02-11T02:26:31.165Z,10.09
2023-02-11T02:29:22.689Z,10.08
2023-02-11T02:32:23.133Z,9.99
2023-02-11T02:34:53.933Z,9.94
2023-02-11T02:37:27.778Z,9.90
2023-02-11T02:39:57.351Z,9.80
2023-02-11T02:42:25.144Z,9.73
2023-02-11T02:44:53.575Z,9.64
2023-02-11T02:47:22.186Z,9.51
2023-02-11T02:49:49.238Z,9.55
2023-02-11T02:52:25.450Z,9.55
2023-02-11T02:55:17.608Z,9.52
2023-02-11T02:58:02.928Z,9.59
2023-02-11T03:00:37.751Z,9.61
2023-02-11T03:03:22.504Z,9.64
2023-02-11T03:05:57.008Z,9.64
2023-02-11T03:08:30.613Z,9.69
2023-02-11T03:11:00.117Z,9.73
2023-02-11T03:13:33.533Z,9.83
2023-02-11T03:16:05.342Z,9.75
2023-02-11T03:18:36.989Z,9.69
2023-02-11T03:21:08.396Z,9.60
2023-02-11T03:23:40.256Z,9.51
2023-02-11T03:26:14.407Z,9.49
2023-02-11T03:28:49.693Z,9.64
2023-02-11T03:31:22.327Z,9.61
2023-02-11T03:33:57.260Z,9.55
2023-02-11T03:36:33.417Z,9.54
2023-02-11T03:39:01.980Z,9.55
2023-02-11T03:41:31.664Z,9.46
2023-02-11T03:43:59.606Z,9.33
2023-02-11T03:46:31.476Z,9.29
2023-02-11T03:49:03.939Z,9.24
2023-02-11T03:51:33.354Z,9.28
2023-02-11T03:54:04.968Z,9.16
2023-02-11T03:56:36.780Z,9.14
2023-02-11T03:59:03.824Z,9.13
2023-02-11T04:01:31.001Z,9.10
2023-02-11T04:03:58.003Z,9.12
2023-02-11T04:06:26.477Z,9.16
2023-02-11T04:08:53.718Z,9.24
2023-02-11T04:11:20.662Z,9.31
2023-02-11T04:13:47.713Z,9.41
2023-02-11T04:16:14.730Z,9.39
2023-02-11T04:18:41.747Z,9.47
2023-02-11T04:21:09.416Z,9.48
2023-02-11T04:23:41.021Z,9.54
2023-02-11T04:26:08.314Z,9.55
2023-02-11T04:28:36.439Z,9.65
2023-02-11T04:31:03.836Z,9.75
2023-02-11T04:33:31.132Z,9.64
2023-02-11T04:35:58.237Z,9.73
2023-02-11T04:38:25.368Z,9.62
2023-02-11T04:40:53.996Z,9.64
2023-02-11T04:43:21.399Z,9.67
2023-02-11T04:45:48.863Z,9.62
2023-02-11T04:48:16.265Z,9.69
2023-02-11T04:50:43.530Z,9.78
2023-02-11T04:53:10.679Z,9.75
2023-02-11T04:55:37.890Z,9.73
2023-02-11T04:58:06.792Z,9.89
2023-02-11T05:00:36.603Z,9.74
2023-02-11T05:03:06.122Z,9.66
2023-02-11T05:05:33.272Z,9.68
2023-02-11T05:08:00.537Z,9.72
2023-02-11T05:10:28.734Z,9.80
2023-02-11T05:12:56.192Z,9.86
2023-02-11T05:15:25.011Z,9.69
2023-02-11T05:17:52.201Z,9.75
2023-02-11T05:20:19.483Z,9.74
2023-02-11T05:22:46.830Z,9.83
2023-02-11T05:25:14.097Z,9.78
2023-02-11T05:27:41.351Z,9.67
2023-02-11T05:30:10.916Z,9.52
2023-02-11T05:32:39.602Z,9.63
2023-02-11T05:35:08.347Z,9.66
2023-02-11T05:37:35.668Z,9.55
2023-02-11T05:40:02.910Z,9.35
2023-02-11T05:42:30.063Z,9.37
2023-02-11T05:44:57.256Z,9.31
2023-02-11T05:47:24.431Z,9.25
2023-02-11T05:49:54.640Z,9.27
2023-02-11T05:52:22.066Z,9.21
2023-02-11T05:54:49.478Z,9.22
2023-02-11T05:57:16.788Z,9.22
2023-02-11T05:59:44.301Z,9.23
2023-02-11T06:02:11.544Z,9.15
2023-02-11T06:04:38.873Z,9.03
2023-02-11T06:07:07.464Z,9.06
2023-02-11T06:09:34.566Z,9.20
2023-02-11T06:12:01.827Z,9.18
2023-02-11T06:14:29.031Z,9.11
2023-02-11T06:16:56.246Z,9.01
2023-02-11T06:19:23.335Z,9.04
2023-02-11T06:21:50.806Z,9.03
2023-02-11T06:24:33.134Z,8.96
2023-02-11T06:27:06.960Z,8.92
2023-02-11T06:29:33.967Z,9.00
2023-02-11T06:32:01.212Z,8.92
2023-02-11T06:34:28.330Z,9.06
2023-02-11T06:36:55.952Z,9.04
2023-02-11T06:39:24.786Z,8.96
2023-02-11T06:41:51.992Z,9.00
2023-02-11T06:44:23.206Z,8.90
2023-02-11T06:46:52.495Z,8.94
2023-02-11T06:52:04.227Z,8.97
2023-02-11T06:54:32.640Z,8.99
2023-02-11T06:56:59.728Z,8.98
2023-02-11T06:59:26.704Z,8.99
2023-02-11T07:01:53.682Z,9.06
2023-02-11T07:04:20.790Z,9.03
2023-02-11T07:06:47.784Z,9.10
2023-02-11T07:09:14.739Z,9.25
2023-02-11T07:11:43.122Z,9.18
2023-02-11T07:14:10.757Z,9.15
2023-02-11T07:16:38.861Z,9.06
2023-02-11T07:19:05.824Z,9.13
2023-02-11T07:21:33.096Z,9.18
2023-02-11T07:24:00.130Z,9.30
2023-02-11T07:26:27.433Z,9.30
2023-02-11T07:28:55.833Z,9.42
2023-02-11T07:31:24.541Z,9.48
2023-02-11T07:33:53.201Z,9.45
2023-02-11T07:36:20.888Z,9.57
2023-02-11T07:38:48.279Z,9.63
2023-02-11T07:41:16.938Z,9.70
2023-02-11T07:43:44.252Z,9.74
2023-02-11T07:46:18.988Z,9.73
2023-02-11T07:48:46.008Z,9.74
2023-02-11T07:51:15.407Z,9.80
2023-02-11T07:53:43.017Z,9.84
2023-02-11T07:56:11.026Z,9.84
2023-02-11T07:58:38.224Z,9.96
2023-02-11T08:01:07.134Z,9.97
2023-02-11T08:03:35.989Z,10.02
2023-02-11T08:06:04.361Z,10.06
2023-02-11T08:08:31.285Z,10.18
2023-02-11T08:10:58.527Z,10.01
2023-02-11T08:13:27.113Z,10.09
2023-02-11T08:15:57.519Z,10.13
2023-02-11T08:18:24.487Z,10.19
2023-02-11T08:20:53.097Z,10.29
2023-02-11T08:23:20.482Z,10.21
2023-02-11T08:25:47.588Z,10.23
2023-02-11T08:28:14.661Z,10.42
2023-02-11T08:30:41.745Z,10.34
2023-02-11T08:33:08.780Z,10.44
2023-02-11T08:35:36.573Z,10.62
2023-02-11T08:38:05.007Z,10.64
2023-02-11T08:40:31.981Z,10.66
2023-02-11T08:42:58.977Z,10.61
2023-02-11T08:45:26.039Z,10.56
2023-02-11T08:47:53.162Z,10.64
2023-02-11T08:50:20.632Z,10.56
2023-02-11T08:52:47.787Z,10.70
2023-02-11T08:55:16.582Z,10.69
2023-02-11T08:57:43.529Z,10.73
2023-02-11T09:00:11.617Z,10.81
2023-02-11T09:02:38.681Z,10.90
2023-02-11T09:05:06.435Z,10.87
2023-02-11T09:07:33.508Z,10.74
2023-02-11T09:10:00.545Z,10.78
2023-02-11T09:12:28.970Z,10.81
2023-02-11T09:14:56.005Z,11.01
2023-02-11T09:17:23.028Z,11.03
2023-02-11T09:19:50.016Z,11.10
2023-02-11T09:22:16.977Z,11.12
2023-02-11T09:24:43.982Z,11.31
2023-02-11T09:27:11.067Z,11.40
2023-02-11T09:29:39.507Z,11.54
2023-02-11T09:32:09.681Z,11.53
2023-02-11T09:34:39.851Z,11.45
2023-02-11T09:37:06.871Z,11.56
2023-02-11T09:39:33.874Z,11.55
2023-02-11T09:42:17.063Z,11.53
2023-02-11T09:44:47.635Z,11.62
2023-02-11T09:47:24.943Z,11.57
2023-02-11T09:49:57.439Z,11.49
2023-02-11T09:52:33.402Z,11.63
2023-02-11T09:55:03.024Z,11.61
2023-02-11T09:57:33.710Z,11.62
2023-02-11T10:00:03.902Z,11.65
2023-02-11T10:02:45.722Z,11.65
2023-02-11T10:05:26.235Z,11.56
2023-02-11T10:08:01.425Z,11.53
2023-02-11T10:10:51.163Z,11.31
2023-02-11T10:13:42.684Z,11.52
2023-02-11T10:16:26.625Z,11.73
2023-02-11T10:19:16.916Z,11.77
2023-02-11T10:21:54.490Z,11.92
2023-02-11T10:24:22.324Z,12.09
2023-02-11T10:26:49.699Z,12.01
2023-02-11T10:29:31.475Z,11.84
2023-02-11T10:32:04.325Z,11.98
2023-02-11T10:34:31.312Z,11.92
2023-02-11T10:36:58.590Z,11.99
2023-02-11T10:39:27.893Z,12.04
2023-02-11T10:41:57.975Z,12.28
2023-02-11T10:44:28.992Z,12.19
2023-02-11T10:46:57.615Z,11.99
2023-02-11T10:49:38.520Z,12.19
2023-02-11T10:52:20.642Z,12.56
2023-02-11T10:54:59.565Z,12.53
2023-02-11T10:57:30.480Z,12.69
2023-02-11T10:59:59.875Z,12.75
2023-02-11T11:02:32.286Z,12.64
2023-02-11T11:05:04.789Z,12.72
2023-02-11T11:07:33.749Z,12.67
2023-02-11T11:10:04.853Z,12.59
2023-02-11T11:12:42.173Z,12.68
2023-02-11T11:15:22.299Z,12.60
2023-02-11T11:17:50.002Z,12.87
2023-02-11T11:20:24.505Z,13.03
2023-02-11T11:22:54.264Z,13.36
2023-02-11T11:25:27.461Z,13.22
2023-02-11T11:27:57.479Z,13.21
2023-02-11T11:30:28.598Z,13.25
2023-02-11T11:32:56.875Z,13.44
2023-02-11T11:35:30.187Z,13.11
2023-02-11T11:38:01.956Z,13.22
2023-02-11T11:40:30.592Z,13.46
2023-02-11T11:43:14.191Z,13.45
2023-02-11T11:45:53.481Z,13.55
2023-02-11T11:48:24.967Z,13.58
2023-02-11T11:50:57.497Z,13.78
2023-02-11T11:53:32.044Z,13.62
2023-02-11T11:56:03.733Z,13.23
2023-02-11T11:58:32.241Z,13.31
2023-02-11T12:01:15.889Z,13.25
2023-02-11T12:04:24.219Z,13.33
2023-02-11T12:07:10.390Z,13.45
2023-02-11T12:09:53.183Z,13.41
2023-02-11T12:12:41.535Z,13.55
2023-02-11T12:15:20.986Z,13.43
2023-02-11T12:18:13.520Z,13.44
2023-02-11T12:21:01.933Z,13.32
2023-02-11T12:23:48.665Z,13.54
2023-02-11T12:26:19.645Z,13.42
2023-02-11T12:29:01.097Z,13.32
2023-02-11T12:31:41.099Z,13.45
2023-02-11T12:34:40.584Z,13.29
2023-02-11T12:37:26.038Z,13.55
2023-02-11T12:40:07.281Z,13.48
2023-02-11T12:43:12.588Z,13.44
2023-02-11T12:45:53.773Z,13.42
2023-02-11T12:48:41.118Z,13.55
2023-02-11T12:51:19.848Z,13.59
2023-02-11T12:54:11.851Z,13.71
2023-02-11T12:56:45.398Z,13.42
2023-02-11T12:59:20.985Z,13.75
2023-02-11T13:01:52.031Z,13.79
2023-02-11T13:04:25.889Z,13.82
2023-02-11T13:06:55.899Z,13.74
2023-02-11T13:09:26.703Z,13.82
2023-02-11T13:11:59.183Z,13.73
2023-02-11T13:14:29.252Z,13.69
2023-02-11T13:16:58.501Z,13.64
2023-02-11T13:19:33.221Z,13.91
2023-02-11T13:22:07.831Z,13.57
2023-02-11T13:24:44.648Z,13.80
2023-02-11T13:27:30.179Z,13.92
2023-02-11T13:30:22.119Z,13.69
2023-02-11T13:33:21.498Z,13.63
2023-02-11T13:36:10.633Z,13.72
2023-02-11T13:38:38.710Z,13.48
2023-02-11T13:41:15.525Z,13.37
2023-02-11T13:43:44.681Z,13.68
2023-02-11T13:46:13.532Z,13.80
2023-02-11T13:48:49.229Z,13.70
2023-02-11T13:51:19.205Z,13.72
2023-02-11T13:53:49.933Z,13.55
2023-02-11T13:56:28.325Z,13.81
2023-02-11T13:59:00.207Z,13.82
2023-02-11T14:02:20.064Z,13.64
2023-02-11T14:05:39.720Z,13.79
2023-02-11T14:08:45.895Z,13.56
2023-02-11T14:11:43.811Z,13.53
2023-02-11T14:14:28.985Z,13.38
2023-02-11T14:17:33.087Z,13.74
2023-02-11T14:20:04.524Z,13.62
2023-02-11T14:22:42.759Z,13.77
2023-02-11T14:25:22.321Z,13.91
2023-02-11T14:27:55.346Z,13.84
2023-02-11T14:30:56.381Z,13.44
2023-02-11T14:33:57.700Z,13.69
2023-02-11T14:36:51.937Z,13.83
2023-02-11T14:39:37.700Z,13.94
2023-02-11T14:42:04.977Z,13.60
2023-02-11T14:44:34.211Z,13.56
2023-02-11T14:47:03.268Z,13.70
2023-02-11T14:49:33.358Z,13.58
2023-02-11T14:52:06.323Z,13.54
2023-02-11T14:54:35.224Z,13.41
2023-02-11T14:57:13.333Z,13.45
2023-02-11T14:59:41.204Z,13.32
2023-02-11T15:02:22.970Z,13.57
2023-02-11T15:04:50.217Z,13.56
2023-02-11T15:07:18.421Z,13.65
2023-02-11T15:09:48.542Z,13.52
2023-02-11T15:12:20.303Z,13.85
2023-02-11T15:14:50.737Z,13.85
2023-02-11T15:17:22.705Z,13.83
2023-02-11T15:19:53.388Z,13.59
2023-02-11T15:22:23.608Z,13.64
2023-02-11T15:24:59.452Z,13.64
2023-02-11T15:27:26.604Z,13.54
2023-02-11T15:29:53.765Z,13.62
2023-02-11T15:32:24.594Z,13.66
2023-02-11T15:34:54.143Z,13.54
2023-02-11T15:37:23.596Z,13.86
2023-02-11T15:39:51.995Z,13.69
2023-02-11T15:42:22.047Z,13.81
2023-02-11T15:44:56.400Z,13.67
2023-02-11T15:47:25.464Z,13.67
2023-02-11T15:49:52.551Z,13.63
2023-02-11T15:52:25.605Z,13.63
2023-02-11T15:54:53.779Z,13.61
2023-02-11T15:57:22.832Z,13.49
2023-02-11T15:59:52.450Z,13.48
2023-02-11T16:02:22.420Z,13.41
2023-02-11T16:04:53.772Z,13.53
2023-02-11T16:07:42.318Z,13.54
2023-02-11T16:10:22.165Z,13.36
2023-02-11T16:13:20.519Z,13.27
2023-02-11T16:15:51.138Z,13.29
2023-02-11T16:18:38.979Z,13.16
2023-02-11T16:21:16.073Z,13.26
2023-02-11T16:23:49.405Z,13.21
2023-02-11T16:26:26.096Z,13.16
2023-02-11T16:28:53.780Z,13.15
2023-02-11T16:31:20.857Z,13.11
2023-02-11T16:33:47.847Z,13.13
2023-02-11T16:36:20.004Z,13.18
2023-02-11T16:38:47.157Z,13.16
2023-02-11T16:41:14.434Z,13.17
2023-02-11T16:43:41.433Z,13.17
2023-02-11T16:46:09.491Z,13.05
2023-02-11T16:48:38.053Z,13.03
2023-02-11T16:51:05.428Z,13.05
2023-02-11T16:53:33.827Z,13.08
2023-02-11T16:56:00.847Z,13.08
2023-02-11T16:58:27.818Z,12.91
2023-02-11T17:00:57.125Z,12.99
2023-02-11T17:03:29.597Z,12.98
2023-02-11T17:05:57.143Z,13.00
2023-02-11T17:08:24.136Z,12.98
2023-02-11T17:10:52.895Z,12.93
2023-02-11T17:13:20.355Z,12.99
2023-02-11T17:15:47.465Z,12.86
2023-02-11T17:18:14.591Z,12.92
2023-02-11T17:20:42.123Z,12.90
2023-02-11T17:23:09.813Z,12.85
2023-02-11T17:25:40.807Z,12.87
2023-02-11T17:28:10.006Z,12.89
2023-02-11T17:30:39.940Z,12.90
2023-02-11T17:33:06.974Z,12.86
2023-02-11T17:35:34.230Z,12.85
2023-02-11T17:38:01.542Z,12.87
2023-02-11T17:40:28.659Z,12.80
2023-02-11T17:42:55.700Z,12.80
2023-02-11T17:45:24.198Z,12.77
2023-02-11T17:47:51.145Z,12.71
2023-02-11T17:50:18.638Z,12.89
2023-02-11T17:52:45.512Z,12.76
2023-02-11T17:55:12.542Z,12.70
2023-02-11T17:57:39.716Z,12.67
2023-02-11T18:00:10.018Z,12.68
2023-02-11T18:02:38.475Z,12.63
2023-02-11T18:05:06.425Z,12.61
2023-02-11T18:07:33.451Z,12.66
2023-02-11T18:10:00.531Z,12.68
2023-02-11T18:12:27.511Z,12.62
2023-02-11T18:14:57.872Z,12.57
2023-02-11T18:17:25.907Z,12.57
2023-02-11T18:19:57.413Z,12.58
2023-02-11T18:22:25.106Z,12.55
2023-02-11T18:24:52.780Z,12.48
2023-02-11T18:27:19.950Z,12.50
2023-02-11T18:29:46.983Z,12.48
2023-02-11T18:32:14.228Z,12.54
2023-02-11T18:34:41.387Z,12.48
2023-02-11T18:37:10.360Z,12.40
2023-02-11T18:39:37.410Z,12.48
2023-02-11T18:42:04.796Z,12.42
2023-02-11T18:44:32.037Z,12.52
2023-02-11T18:46:59.359Z,12.60
2023-02-11T18:49:26.413Z,12.55
2023-02-11T18:51:53.668Z,12.52
2023-02-11T18:54:22.091Z,12.53
2023-02-11T18:56:49.110Z,12.42
2023-02-11T18:59:16.148Z,12.44
2023-02-11T19:01:46.900Z,12.39
2023-02-11T19:04:19.056Z,12.41
2023-02-11T19:06:49.595Z,12.42
2023-02-11T19:09:19.163Z,12.41
2023-02-11T19:11:47.982Z,12.38
2023-02-11T19:14:16.175Z,12.36
2023-02-11T19:16:44.632Z,12.31
2023-02-11T19:19:11.830Z,12.35
2023-02-11T19:21:38.884Z,12.28
2023-02-11T19:24:07.818Z,12.31
2023-02-11T19:26:35.688Z,12.26
2023-02-11T19:29:04.579Z,12.29
2023-02-11T19:31:32.403Z,12.26
2023-02-11T19:33:59.496Z,12.31
2023-02-11T19:36:26.853Z,12.27
2023-02-11T19:38:54.124Z,12.29
2023-02-11T19:41:24.597Z,12.24
2023-02-11T19:43:53.068Z,12.26
2023-02-11T19:46:22.315Z,12.31
2023-02-11T19:48:50.051Z,12.22
2023-02-11T19:51:17.843Z,12.21
2023-02-11T19:53:45.620Z,12.18
2023-02-11T19:56:14.200Z,12.22
2023-02-11T19:58:42.357Z,12.20
2023-02-11T20:01:12.329Z,12.20
2023-02-11T20:03:42.567Z,12.21
2023-02-11T20:06:13.218Z,12.20
2023-02-11T20:08:40.609Z,12.15
2023-02-11T20:11:09.173Z,12.18
2023-02-11T20:13:37.755Z,12.11
2023-02-11T20:16:12.458Z,12.17
2023-02-11T20:18:41.220Z,12.08
2023-02-11T20:21:09.123Z,12.08
2023-02-11T20:23:38.328Z,12.04
2023-02-11T20:26:06.920Z,12.03
2023-02-11T20:28:34.027Z,11.96
2023-02-11T20:31:01.394Z,12.01
2023-02-11T20:33:30.038Z,12.04
2023-02-11T20:36:00.203Z,12.01
2023-02-11T20:38:27.759Z,12.03
2023-02-11T20:40:55.552Z,12.00
2023-02-11T20:43:23.083Z,11.95
2023-02-11T20:45:50.514Z,11.97
2023-02-11T20:48:17.629Z,11.93
2023-02-11T20:50:47.959Z,12.00
2023-02-11T20:53:16.576Z,11.96
2023-02-11T20:55:43.754Z,11.99
2023-02-11T20:58:10.812Z,12.00
2023-02-11T21:00:38.120Z,11.82
2023-02-11T21:03:05.495Z,11.86
2023-02-11T21:05:32.689Z,11.89
2023-02-11T21:07:59.690Z,11.93
2023-02-11T21:10:28.412Z,11.91
2023-02-11T21:12:55.408Z,11.80
2023-02-11T21:15:24.213Z,11.85
2023-02-11T21:17:51.518Z,11.78
2023-02-11T21:20:19.045Z,11.87
2023-02-11T21:22:46.249Z,11.88
2023-02-11T21:25:13.405Z,11.87
2023-02-11T21:27:41.847Z,11.79
2023-02-11T21:30:09.884Z,11.84
2023-02-11T21:32:36.925Z,11.87
2023-02-11T21:35:04.088Z,11.87
2023-02-11T21:37:31.047Z,11.89
2023-02-11T21:39:58.094Z,11.80
2023-02-11T21:42:25.195Z,11.77
2023-02-11T21:44:53.529Z,11.73
2023-02-11T21:47:20.769Z,11.70
2023-02-11T21:49:47.737Z,11.75
2023-02-11T21:52:14.766Z,11.77
2023-02-11T21:54:41.829Z,11.80
2023-02-11T21:57:08.798Z,11.55
2023-02-11T21:59:35.805Z,11.60
2023-02-11T22:02:04.264Z,11.64
2023-02-11T22:04:31.513Z,11.67
2023-02-11T22:06:58.568Z,11.47
2023-02-11T22:09:25.599Z,11.49
2023-02-11T22:11:53.736Z,11.61
2023-02-11T22:14:20.822Z,11.70
2023-02-11T22:16:48.219Z,11.71
2023-02-11T22:19:17.447Z,11.71
2023-02-11T22:21:44.451Z,11.65
2023-02-11T22:24:11.598Z,11.63
2023-02-11T22:26:39.006Z,11.60
2023-02-11T22:29:06.130Z,11.45
2023-02-11T22:31:34.943Z,11.52
2023-02-11T22:34:03.199Z,11.60
2023-02-11T22:36:33.285Z,11.59
2023-02-11T22:39:02.044Z,11.54
2023-02-11T22:41:29.271Z,11.59
2023-02-11T22:43:56.273Z,11.64
2023-02-11T22:46:23.779Z,11.61
2023-02-11T22:48:51.274Z,11.43
2023-02-11T22:51:20.340Z,11.10
2023-02-11T22:53:53.478Z,11.43
2023-02-11T22:56:21.543Z,11.53
2023-02-11T22:58:50.710Z,11.56
2023-02-11T23:01:18.817Z,11.57
2023-02-11T23:03:46.193Z,11.54
2023-02-11T23:06:13.516Z,11.54
2023-02-11T23:08:43.024Z,11.53
2023-02-11T23:11:13.462Z,11.58
2023-02-11T23:13:41.823Z,11.60
2023-02-11T23:16:11.163Z,11.55
2023-02-11T23:18:40.700Z,11.64
2023-02-11T23:21:12.389Z,11.58
2023-02-11T23:23:39.984Z,11.48
2023-02-11T23:26:12.437Z,11.36
2023-02-11T23:28:40.163Z,11.41
2023-02-11T23:31:18.253Z,11.45
2023-02-11T23:33:46.011Z,11.50
2023-02-11T23:36:13.653Z,11.58
2023-02-11T23:38:40.914Z,11.62
2023-02-11T23:41:08.133Z,11.62
2023-02-11T23:43:36.664Z,11.55
2023-02-11T23:46:03.761Z,11.57
2023-02-11T23:48:30.807Z,11.57
2023-02-11T23:50:57.931Z,11.53
2023-02-11T23:53:24.908Z,11.51
2023-02-11T23:55:51.782Z,11.52
2023-02-11T23:58:19.259Z,11.49
